Lawrenceville, New Jersey
Current Conditions -  °F | °C
As of 3:53 PM on Sunday 21 Dec 2014 (Local Time) from KTTN Reporting Station
Overcast Overcast  
Wind Chill: 29°   Ceiling: 2700
Heat Index: 35°   Visibility: 10mi
Dew Point: 23°   Wind: 7mph
Humidity: 61%   Direction: 350°N
Pressure: 30.28"   Gusts: NA
Location:  40.2832°N, 74.7089°W
Report Text: KTTN 212053Z 35006KT 10SM OVC027 02/M05 A3028 RMK AO2 SLP251 T00171050 56003
Loading
Personal Weather Stations






























Interactive Weather Map New forecast layout! Learn more

10-Day Weather Forecast

Advertisements
Track Severe Weather on mobile